Time;durP1;ratioP1;P1;durP2;ratioP2;P2;SDS_P1;SDS_P2;PMS_P1;PMS_P2;Temp;Humidity;BMP_temperature;BMP_pressure;BME280_temperature;BME280_humidity;BME280_pressure;Samples;Min_cycle;Max_cycle;Signal;HPM_P1;HPM_P2
2022/10/16 00:00:43;;;;;;;8.30;6.57;;;;;;;13.77;92.37;99805.47;5018784;28;20896;-81
2022/10/16 00:03:10;;;;;;;8.23;6.70;;;;;;;13.80;92.80;99810.50;5013103;28;20471;-80
2022/10/16 00:05:43;;;;;;;10.00;7.27;;;;;;;13.86;92.91;99804.44;5022442;28;20495;-80
2022/10/16 00:08:10;;;;;;;9.70;8.03;;;;;;;13.82;92.89;99819.22;5009407;28;20604;-80
2022/10/16 00:10:37;;;;;;;12.53;8.40;;;;;;;13.82;93.21;99824.59;5024267;28;20475;-81
2022/10/16 00:13:04;;;;;;;12.03;7.60;;;;;;;13.74;93.14;99828.13;5019107;28;20587;-80
2022/10/16 00:15:31;;;;;;;12.93;7.60;;;;;;;13.81;93.34;99823.75;5003688;28;21073;-81
2022/10/16 00:17:58;;;;;;;10.53;7.87;;;;;;;13.82;92.98;99824.59;5019520;28;20459;-81
2022/10/16 00:20:24;;;;;;;10.97;8.07;;;;;;;13.90;92.87;99816.50;5015475;28;20484;-80
2022/10/16 00:22:52;;;;;;;11.33;7.67;;;;;;;13.80;92.91;99816.72;5005505;28;20476;-80
2022/10/16 00:25:19;;;;;;;10.33;7.33;;;;;;;13.73;92.76;99821.94;5005871;28;20458;-80
2022/10/16 00:27:46;;;;;;;9.00;7.50;;;;;;;13.82;93.31;99824.59;5021748;28;20491;-80
2022/10/16 00:30:12;;;;;;;10.43;8.13;;;;;;;13.71;92.81;99820.41;5020221;28;20517;-80
2022/10/16 00:32:39;;;;;;;7.87;7.00;;;;;;;13.68;93.23;99836.88;5005756;28;20499;-81
2022/10/16 00:35:06;;;;;;;9.07;7.30;;;;;;;13.76;92.91;99826.13;5005273;28;20500;-81
2022/10/16 00:37:33;;;;;;;9.43;7.20;;;;;;;13.69;93.41;99814.38;5004477;28;20479;-80
2022/10/16 00:40:01;;;;;;;8.57;7.37;;;;;;;13.69;92.89;99819.75;5008621;28;20451;-80
2022/10/16 00:42:27;;;;;;;8.80;7.40;;;;;;;13.62;93.03;99824.97;5021735;28;20502;-80
2022/10/16 00:44:56;;;;;;;8.00;7.20;;;;;;;13.55;93.07;99821.28;5005286;28;20547;-80
2022/10/16 00:47:26;;;;;;;10.33;7.70;;;;;;;13.48;93.26;99820.31;5012514;28;20513;-80
2022/10/16 00:49:56;;;;;;;11.03;8.17;;;;;;;13.48;93.83;99818.44;5010447;28;20543;-80
2022/10/16 00:52:22;;;;;;;9.10;8.03;;;;;;;13.45;93.69;99804.53;5015673;28;20514;-80
2022/10/16 00:54:50;;;;;;;10.33;8.13;;;;;;;13.48;93.90;99823.81;5004752;28;20468;-80
2022/10/16 00:57:19;;;;;;;11.47;8.63;;;;;;;13.44;94.16;99832.41;5006559;28;20467;-80
2022/10/16 00:59:46;;;;;;;10.17;7.47;;;;;;;13.40;93.68;99828.34;5022100;28;20517;-80
2022/10/16 01:02:16;;;;;;;8.43;7.50;;;;;;;13.23;94.05;99828.34;5003468;28;20511;-79
2022/10/16 01:04:44;;;;;;;9.73;7.43;;;;;;;13.20;94.23;99820.63;5004642;28;20455;-81
2022/10/16 01:07:14;;;;;;;13.70;8.67;;;;;;;13.18;94.22;99828.84;5020044;28;20498;-80
2022/10/16 01:09:48;;;;;;;10.43;8.00;;;;;;;13.09;94.56;99824.50;5007335;28;20488;-81
2022/10/16 01:12:17;;;;;;;12.77;8.83;;;;;;;13.07;95.07;99825.66;5011340;28;20501;-81
2022/10/16 01:14:49;;;;;;;9.57;7.60;;;;;;;13.10;94.83;99834.22;5021532;28;20471;-81
2022/10/16 01:17:20;;;;;;;11.43;9.10;;;;;;;12.99;94.65;99842.59;5003343;28;20476;-79
2022/10/16 01:19:57;;;;;;;14.33;7.80;;;;;;;12.94;95.16;99844.94;5019380;28;20482;-80
2022/10/16 01:22:27;;;;;;;10.83;7.47;;;;;;;13.10;95.82;99839.56;5013038;28;20483;-80
2022/10/16 01:24:55;;;;;;;9.77;7.90;;;;;;;13.07;95.71;99847.97;5008094;28;20476;-80
2022/10/16 01:27:26;;;;;;;13.10;8.50;;;;;;;13.16;95.41;99843.47;5008926;28;20490;-80
2022/10/16 01:29:54;;;;;;;10.70;9.23;;;;;;;13.13;95.32;99841.94;5016634;28;20475;-79
2022/10/16 01:32:25;;;;;;;9.63;8.37;;;;;;;13.14;95.21;99838.25;5002670;28;20636;-81
2022/10/16 01:34:54;;;;;;;11.23;7.70;;;;;;;13.12;95.31;99837.59;5005199;28;20447;-81
2022/10/16 01:37:26;;;;;;;12.03;9.67;;;;;;;13.18;95.28;99842.28;5009502;28;20492;-81
2022/10/16 01:39:56;;;;;;;12.60;8.77;;;;;;;13.22;95.58;99850.81;5009629;28;20528;-81
2022/10/16 01:42:28;;;;;;;12.10;9.33;;;;;;;13.19;95.54;99846.66;5022597;28;20544;-81
2022/10/16 01:44:56;;;;;;;10.60;9.33;;;;;;;13.17;95.52;99855.84;5022473;28;21090;-82
2022/10/16 01:47:25;;;;;;;11.07;9.00;;;;;;;13.20;96.00;99858.22;5012954;28;20489;-82
2022/10/16 01:49:52;;;;;;;11.00;9.80;;;;;;;13.20;95.62;99852.84;5022273;28;20459;-82
2022/10/16 01:52:22;;;;;;;12.70;9.10;;;;;;;13.16;95.49;99851.50;5017798;28;20544;-82
2022/10/16 01:54:51;;;;;;;10.40;8.70;;;;;;;13.15;95.70;99853.34;5005775;28;20452;-81
2022/10/16 01:57:19;;;;;;;13.97;10.00;;;;;;;13.24;95.48;99858.72;5022161;28;20490;-81
2022/10/16 01:59:48;;;;;;;12.47;9.90;;;;;;;13.15;95.32;99847.13;5017752;28;20472;-82
2022/10/16 02:02:16;;;;;;;11.60;8.10;;;;;;;13.11;95.41;99845.81;5007504;28;20506;-82
2022/10/16 02:04:45;;;;;;;10.77;8.90;;;;;;;13.08;96.02;99854.19;5022347;28;20469;-82
2022/10/16 02:07:12;;;;;;;13.20;8.83;;;;;;;13.06;95.71;99851.66;5019979;28;20494;-82
2022/10/16 02:09:39;;;;;;;14.07;8.27;;;;;;;13.01;95.77;99837.91;5022286;28;20490;-81
2022/10/16 02:12:10;;;;;;;10.63;9.33;;;;;;;13.03;95.90;99851.97;5019217;28;20559;-81
2022/10/16 02:14:39;;;;;;;11.70;9.40;;;;;;;13.09;96.01;99845.09;5002189;28;20484;-80
2022/10/16 02:17:12;;;;;;;11.37;8.03;;;;;;;13.09;95.70;99837.91;5003721;28;20850;-81
2022/10/16 02:19:39;;;;;;;10.90;8.77;;;;;;;13.06;95.95;99840.91;5006529;28;21023;-80
2022/10/16 02:22:08;;;;;;;9.37;8.30;;;;;;;13.02;96.59;99844.97;5003421;28;20522;-80
2022/10/16 02:24:40;;;;;;;9.03;8.13;;;;;;;13.10;96.87;99839.56;5021586;28;20450;-80
2022/10/16 02:27:12;;;;;;;9.90;7.63;;;;;;;13.01;96.15;99835.22;5020841;28;20510;-79
2022/10/16 02:29:44;;;;;;;10.20;7.50;;;;;;;12.96;96.25;99833.03;5005916;28;20480;-80
2022/10/16 02:32:13;;;;;;;9.87;8.03;;;;;;;12.88;96.36;99834.84;5001976;28;20474;-80
2022/10/16 02:34:40;;;;;;;9.73;8.30;;;;;;;13.10;96.23;99834.22;5019854;28;20946;-81
2022/10/16 02:37:07;;;;;;;13.83;7.27;;;;;;;13.05;96.56;99833.03;5021746;28;20486;-81
2022/10/16 02:39:34;;;;;;;11.67;8.00;;;;;;;13.02;96.12;99836.03;5021731;28;20491;-81
2022/10/16 02:42:01;;;;;;;11.00;7.67;;;;;;;12.91;95.96;99845.25;5021105;28;20483;-80
2022/10/16 02:44:28;;;;;;;9.53;7.43;;;;;;;12.99;96.18;99834.53;5006489;28;20484;-80
2022/10/16 02:46:54;;;;;;;9.03;7.07;;;;;;;12.96;95.93;99834.88;5013080;28;20561;-80
2022/10/16 02:49:22;;;;;;;10.43;8.07;;;;;;;12.95;95.94;99849.28;5021410;28;20486;-81
2022/10/16 02:51:49;;;;;;;12.80;8.87;;;;;;;12.82;96.04;99847.94;5017740;28;20507;-81
2022/10/16 02:54:16;;;;;;;8.33;6.80;;;;;;;12.93;96.01;99853.97;5015540;28;20540;-81
2022/10/16 02:56:42;;;;;;;7.77;6.97;;;;;;;12.94;95.90;99848.44;5005563;28;20504;-80
2022/10/16 02:59:09;;;;;;;11.00;6.80;;;;;;;12.99;95.92;99845.28;5002610;28;20495;-80
2022/10/16 03:01:35;;;;;;;9.80;8.33;;;;;;;12.98;95.54;99848.97;5011617;28;20571;-81
2022/10/16 03:04:02;;;;;;;10.37;7.60;;;;;;;12.99;95.69;99840.75;5020813;28;20470;-79
2022/10/16 03:06:30;;;;;;;10.27;7.70;;;;;;;12.99;95.53;99858.69;5019148;28;20998;-80
2022/10/16 03:08:56;;;;;;;10.43;9.37;;;;;;;13.17;95.76;99851.31;5021809;28;20478;-79
2022/10/16 03:11:23;;;;;;;13.03;9.30;;;;;;;13.28;95.45;99852.84;5016049;28;20579;-80
2022/10/16 03:13:50;;;;;;;13.63;9.07;;;;;;;13.19;95.21;99859.19;5009060;28;20432;-80
2022/10/16 03:16:18;;;;;;;10.73;8.43;;;;;;;13.25;94.91;99865.78;5018762;28;20514;-80
2022/10/16 03:18:48;;;;;;;8.03;7.27;;;;;;;13.33;94.32;99858.59;5019953;28;20556;-81
2022/10/16 03:21:15;;;;;;;8.77;6.80;;;;;;;13.36;94.24;99854.72;5014458;28;20504;-80
2022/10/16 03:23:43;;;;;;;13.63;7.87;;;;;;;13.19;94.54;99861.88;5011471;28;20502;-80
2022/10/16 03:26:10;;;;;;;7.07;5.67;;;;;;;13.37;94.52;99853.72;5022988;28;20486;-81
2022/10/16 03:28:36;;;;;;;5.63;5.13;;;;;;;13.44;93.59;99857.41;4997909;28;20512;-81
2022/10/16 03:31:03;;;;;;;10.00;5.00;;;;;;;13.49;93.34;99848.84;5005354;28;20483;-81
2022/10/16 03:33:29;;;;;;;7.63;5.30;;;;;;;13.40;93.29;99850.66;5007495;28;20486;-80
2022/10/16 03:35:56;;;;;;;12.30;5.20;;;;;;;13.41;93.29;99854.22;5005024;28;20472;-79
2022/10/16 03:38:23;;;;;;;7.53;4.83;;;;;;;13.35;93.38;99845.81;5007184;28;20476;-79
2022/10/16 03:40:51;;;;;;;6.97;4.67;;;;;;;13.37;93.28;99842.97;5015623;28;20510;-79
2022/10/16 03:43:17;;;;;;;6.27;4.63;;;;;;;13.39;93.11;99849.00;5010455;28;20551;-79
2022/10/16 03:45:44;;;;;;;7.30;5.07;;;;;;;13.36;92.79;99852.84;5024267;28;20557;-79
2022/10/16 03:48:10;;;;;;;8.00;5.60;;;;;;;13.25;93.43;99865.78;5021380;28;20459;-79
2022/10/16 03:50:37;;;;;;;7.00;5.40;;;;;;;13.32;93.43;99867.63;5006317;28;20500;-80
2022/10/16 03:53:04;;;;;;;8.80;6.00;;;;;;;13.33;93.25;99866.66;5020646;28;20451;-78
2022/10/16 03:55:31;;;;;;;11.90;5.47;;;;;;;13.25;93.52;99863.09;5005168;28;20498;-78
2022/10/16 03:57:59;;;;;;;7.63;5.17;;;;;;;13.27;93.80;99863.75;5008639;28;20463;-79
2022/10/16 04:00:25;;;;;;;6.47;5.20;;;;;;;13.32;93.49;99864.94;5005404;28;20484;-78
2022/10/16 04:02:52;;;;;;;6.80;5.53;;;;;;;13.34;93.90;99857.56;5022834;28;20634;-78
2022/10/16 04:05:18;;;;;;;6.63;4.87;;;;;;;13.60;93.11;99867.28;5009773;28;20482;-78
2022/10/16 04:07:45;;;;;;;5.80;4.90;;;;;;;13.51;93.12;99852.19;5020683;28;20549;-78
2022/10/16 04:10:12;;;;;;;9.10;4.53;;;;;;;13.56;92.71;99858.72;5004671;28;20472;-78
2022/10/16 04:12:38;;;;;;;4.90;4.30;;;;;;;13.55;92.35;99850.84;5004749;28;20468;-78
2022/10/16 04:15:08;;;;;;;6.87;4.67;;;;;;;13.61;92.33;99854.69;5005130;28;20452;-78
2022/10/16 04:17:34;;;;;;;5.67;4.33;;;;;;;13.77;91.84;99852.00;5019711;28;20499;-78
2022/10/16 04:20:03;;;;;;;4.10;3.57;;;;;;;13.79;91.64;99855.34;5005482;28;20464;-78
2022/10/16 04:22:30;;;;;;;4.57;3.73;;;;;;;13.65;91.45;99862.25;5018658;28;20511;-78
2022/10/16 04:24:56;;;;;;;4.53;3.73;;;;;;;13.72;91.49;99862.41;5012639;28;20482;-78
2022/10/16 04:27:23;;;;;;;3.93;3.63;;;;;;;13.74;91.17;99860.38;5013624;28;20503;-78
2022/10/16 04:29:49;;;;;;;4.13;3.30;;;;;;;13.83;90.77;99866.56;5017456;28;20474;-78
2022/10/16 04:32:17;;;;;;;4.10;3.40;;;;;;;13.87;90.53;99879.50;5006972;28;20511;-78
2022/10/16 04:34:44;;;;;;;5.30;4.23;;;;;;;13.97;89.80;99881.16;5004495;28;20452;-78
2022/10/16 04:37:11;;;;;;;5.33;3.00;;;;;;;13.92;90.09;99885.22;5005373;28;20552;-78
2022/10/16 04:39:37;;;;;;;4.30;3.40;;;;;;;13.84;89.94;99879.84;5010367;28;20447;-78
2022/10/16 04:42:04;;;;;;;4.90;3.57;;;;;;;13.78;90.17;99887.75;5013829;28;20787;-79
2022/10/16 04:44:30;;;;;;;3.63;3.33;;;;;;;13.85;89.99;99894.09;5015929;28;20467;-79
2022/10/16 04:46:57;;;;;;;4.20;3.17;;;;;;;13.93;89.72;99886.03;5005030;28;20507;-78
2022/10/16 04:49:25;;;;;;;4.50;3.30;;;;;;;13.96;89.43;99883.00;5005591;28;20458;-79
2022/10/16 04:51:52;;;;;;;4.27;3.43;;;;;;;14.06;88.82;99891.72;5004975;28;20547;-79
2022/10/16 04:54:18;;;;;;;4.30;3.83;;;;;;;14.11;88.43;99896.56;5015608;28;20451;-79
2022/10/16 04:56:47;;;;;;;7.87;3.27;;;;;;;13.99;88.71;99892.56;5003336;28;20538;-80
2022/10/16 04:59:14;;;;;;;5.30;3.37;;;;;;;14.01;88.85;99901.28;5016362;28;20467;-80
2022/10/16 05:01:40;;;;;;;4.87;3.53;;;;;;;13.98;89.07;99909.72;5006911;28;20518;-80
2022/10/16 05:04:07;;;;;;;3.10;2.80;;;;;;;13.95;89.25;99910.88;5004065;28;20507;-79
2022/10/16 05:06:35;;;;;;;5.97;3.70;;;;;;;13.99;89.17;99911.38;5003281;28;20494;-79
2022/10/16 05:09:03;;;;;;;7.40;3.40;;;;;;;14.08;88.82;99902.31;5007349;28;20479;-79
2022/10/16 05:11:30;;;;;;;6.50;3.57;;;;;;;14.04;88.78;99915.22;5012891;28;20523;-80
2022/10/16 05:13:57;;;;;;;6.60;3.63;;;;;;;14.00;88.72;99908.53;5004301;28;20468;-80
2022/10/16 05:16:24;;;;;;;5.67;3.70;;;;;;;13.96;89.16;99900.97;5002517;28;20562;-80
2022/10/16 05:18:52;;;;;;;5.60;3.50;;;;;;;13.95;88.61;99905.50;5004793;28;20487;-80
2022/10/16 05:21:18;;;;;;;9.50;3.30;;;;;;;13.88;89.04;99909.91;5012740;28;20476;-80
2022/10/16 05:23:46;;;;;;;4.37;3.03;;;;;;;13.72;89.99;99900.84;5008875;28;20483;-80
2022/10/16 05:26:13;;;;;;;3.27;2.97;;;;;;;13.67;89.89;99913.13;5016522;28;20499;-80
2022/10/16 05:28:40;;;;;;;3.63;3.00;;;;;;;13.78;89.49;99914.59;5021588;28;20963;-80
2022/10/16 05:31:07;;;;;;;4.17;3.57;;;;;;;13.78;88.91;99920.81;5021807;28;20471;-80
2022/10/16 05:33:34;;;;;;;3.63;3.33;;;;;;;13.69;89.50;99916.47;5015228;28;20445;-78
2022/10/16 05:36:02;;;;;;;3.80;3.43;;;;;;;13.63;90.04;99920.69;5002906;28;20494;-78
2022/10/16 05:38:29;;;;;;;2.90;2.70;;;;;;;13.59;90.32;99908.56;5022424;28;20765;-79
2022/10/16 05:40:57;;;;;;;3.93;3.43;;;;;;;13.49;90.86;99922.19;5016204;28;20901;-79
2022/10/16 05:43:24;;;;;;;4.13;3.60;;;;;;;13.61;90.08;99930.75;5004456;28;20482;-78
2022/10/16 05:45:55;;;;;;;4.47;4.03;;;;;;;13.49;90.53;99916.81;5003431;28;20498;-78
2022/10/16 05:48:22;;;;;;;5.33;3.70;;;;;;;13.67;90.00;99918.50;5007159;28;20454;-79
2022/10/16 05:50:49;;;;;;;3.60;3.30;;;;;;;13.55;90.06;99931.41;5003920;28;20472;-79
2022/10/16 05:53:15;;;;;;;8.07;3.53;;;;;;;13.54;90.28;99932.41;5005371;28;20459;-79
2022/10/16 05:55:42;;;;;;;4.47;3.97;;;;;;;13.56;90.33;99943.84;5003863;28;20507;-79
2022/10/16 05:58:10;;;;;;;4.00;3.40;;;;;;;13.49;90.29;99949.03;5005601;28;20530;-79
2022/10/16 06:00:37;;;;;;;5.30;3.67;;;;;;;13.59;90.19;99958.78;5018171;28;20506;-80
2022/10/16 06:03:04;;;;;;;4.10;3.40;;;;;;;13.53;90.23;99968.34;5003615;28;20484;-80
2022/10/16 06:05:31;;;;;;;3.10;2.90;;;;;;;13.63;89.80;99965.50;5007331;28;20820;-80
2022/10/16 06:07:57;;;;;;;3.57;3.27;;;;;;;13.60;89.53;99963.97;5008072;28;20514;-79
2022/10/16 06:10:24;;;;;;;4.73;2.90;;;;;;;13.55;89.31;99961.78;5002119;28;20520;-79
2022/10/16 06:12:51;;;;;;;5.13;3.43;;;;;;;13.64;88.93;99967.19;5003046;28;20432;-78
2022/10/16 06:15:19;;;;;;;8.10;3.37;;;;;;;13.82;88.11;99962.47;5001876;28;20483;-80
2022/10/16 06:17:46;;;;;;;3.33;3.03;;;;;;;13.87;88.13;99964.63;5000607;28;20495;-79
2022/10/16 06:20:12;;;;;;;3.40;2.77;;;;;;;13.88;87.89;99974.41;5001700;28;20452;-80
2022/10/16 06:22:39;;;;;;;4.43;2.50;;;;;;;14.11;87.17;99969.16;5009771;28;20503;-79
2022/10/16 06:25:06;;;;;;;4.10;2.37;;;;;;;14.12;86.36;99985.13;5018697;28;20482;-79
2022/10/16 06:27:33;;;;;;;3.10;2.90;;;;;;;14.21;86.18;99982.41;5021437;28;20467;-80
2022/10/16 06:29:59;;;;;;;2.70;2.50;;;;;;;14.40;84.97;99979.34;5021502;28;20538;-79
2022/10/16 06:32:30;;;;;;;5.60;2.40;;;;;;;14.29;85.16;99982.41;5014868;28;21032;-81
2022/10/16 06:34:57;;;;;;;3.50;2.50;;;;;;;14.67;83.66;99986.19;5002620;28;20483;-81
2022/10/16 06:37:24;;;;;;;2.50;2.20;;;;;;;14.68;82.44;99989.72;5008093;28;20518;-80
2022/10/16 06:39:52;;;;;;;3.50;2.63;;;;;;;15.09;81.05;99986.03;5009837;28;20459;-83
2022/10/16 06:42:18;;;;;;;3.27;1.97;;;;;;;15.06;81.27;99984.50;5014324;28;20524;-87
2022/10/16 06:44:45;;;;;;;2.60;2.00;;;;;;;14.97;81.68;99996.34;5021886;28;20517;-86
2022/10/16 06:47:12;;;;;;;2.63;2.03;;;;;;;15.06;81.25;100000.66;5005309;28;20512;-86
2022/10/16 06:49:40;;;;;;;3.00;1.80;;;;;;;14.89;80.74;100005.28;5002436;28;20448;-82
2022/10/16 06:52:07;;;;;;;2.40;2.00;;;;;;;14.87;81.52;100010.81;5003284;28;20494;-81
2022/10/16 06:54:34;;;;;;;3.43;1.80;;;;;;;14.87;81.36;100010.81;5002615;28;20482;-80
2022/10/16 06:57:01;;;;;;;3.70;1.80;;;;;;;15.22;82.74;100005.97;5016191;28;20510;-82
2022/10/16 06:59:28;;;;;;;2.97;1.50;;;;;;;15.32;80.29;100013.81;5022799;28;20525;-81
2022/10/16 07:01:54;;;;;;;2.23;1.80;;;;;;;15.56;79.13;100023.59;5023223;28;20499;-82
2022/10/16 07:04:21;;;;;;;2.90;1.90;;;;;;;15.34;79.42;100027.09;5015402;28;20482;-81
2022/10/16 07:06:51;;;;;;;3.10;2.13;;;;;;;15.36;79.64;100033.16;5004989;28;20734;-81
2022/10/16 07:09:18;;;;;;;4.57;1.70;;;;;;;15.95;78.30;100036.16;5006861;28;20456;-80
2022/10/16 07:11:44;;;;;;;4.20;1.70;;;;;;;17.12;72.12;100035.63;5005730;28;20533;-82
2022/10/16 07:14:17;;;;;;;1.80;1.60;;;;;;;16.47;73.46;100047.97;5009217;28;20547;-82
2022/10/16 07:16:43;;;;;;;4.40;1.63;;;;;;;16.43;75.22;100043.16;5004672;28;20480;-82
2022/10/16 07:19:12;;;;;;;1.93;1.70;;;;;;;17.67;70.03;100044.16;5005463;28;20483;-83
2022/10/16 07:21:38;;;;;;;2.13;1.47;;;;;;;18.97;63.87;100050.25;5003220;28;20483;-83
2022/10/16 07:24:21;;;;;;;2.00;1.50;;;;;;;20.62;59.16;100055.41;5024105;28;20458;-82
2022/10/16 07:26:47;;;;;;;1.30;1.10;;;;;;;20.71;56.74;100058.72;5024708;28;20510;-82
2022/10/16 07:29:15;;;;;;;2.00;1.33;;;;;;;21.65;54.22;100066.53;5021754;28;20450;-82
2022/10/16 07:31:42;;;;;;;2.40;1.37;;;;;;;21.40;53.66;100070.84;5008630;28;21272;-82
2022/10/16 07:34:10;;;;;;;2.00;1.23;;;;;;;19.09;60.52;100069.44;5011515;28;20522;-83
2022/10/16 07:36:37;;;;;;;4.03;1.67;;;;;;;19.29;61.36;100076.88;5008228;28;20491;-83
2022/10/16 07:39:04;;;;;;;4.70;1.43;;;;;;;19.03;61.73;100088.41;5011970;28;20477;-82
2022/10/16 07:41:36;;;;;;;1.80;1.53;;;;;;;20.04;59.29;100094.00;5012092;28;20519;-83
2022/10/16 07:44:03;;;;;;;1.80;1.17;;;;;;;20.76;56.61;100102.41;5005015;28;20489;-83
2022/10/16 07:46:33;;;;;;;1.43;1.00;;;;;;;20.73;55.76;100101.97;5003493;28;20482;-83
2022/10/16 07:49:00;;;;;;;1.47;1.10;;;;;;;20.15;58.97;100111.53;5002788;28;21022;-83
2022/10/16 07:51:28;;;;;;;2.23;1.40;;;;;;;20.04;58.90;100109.44;5003604;28;20594;-83
2022/10/16 07:53:55;;;;;;;2.23;1.20;;;;;;;19.48;60.91;100116.78;5004687;28;20479;-83
2022/10/16 07:56:22;;;;;;;5.60;1.40;;;;;;;18.42;63.94;100119.63;5004180;28;20539;-83
2022/10/16 07:58:52;;;;;;;2.00;1.63;;;;;;;17.31;68.81;100122.53;5006136;28;21019;-81
2022/10/16 08:01:19;;;;;;;2.90;1.70;;;;;;;18.72;64.56;100127.56;5003755;28;20543;-83
2022/10/16 08:03:48;;;;;;;2.70;1.47;;;;;;;18.01;65.76;100134.63;5024983;28;20517;-81
2022/10/16 08:06:14;;;;;;;1.83;1.53;;;;;;;19.32;62.66;100133.34;5022342;28;20557;-82
2022/10/16 08:08:41;;;;;;;2.57;1.23;;;;;;;21.86;53.67;100136.16;5024490;28;20544;-82
2022/10/16 08:11:08;;;;;;;1.30;1.20;;;;;;;22.74;50.19;100138.91;5013133;28;20832;-82
2022/10/16 08:13:35;;;;;;;1.27;1.17;;;;;;;23.10;49.84;100139.19;5004703;28;20477;-83
2022/10/16 08:16:13;;;;;;;1.93;1.27;;;;;;;24.40;45.77;100132.47;5007353;28;20464;-82
2022/10/16 08:18:41;;;;;;;1.60;0.90;;;;;;;24.48;45.21;100141.38;5023904;28;20516;-83
2022/10/16 08:21:08;;;;;;;3.93;1.57;;;;;;;23.99;46.58;100136.03;5022258;28;21068;-83
2022/10/16 08:23:35;;;;;;;3.03;1.50;;;;;;;23.04;48.60;100159.19;5022807;28;20450;-84
2022/10/16 08:26:07;;;;;;;1.97;1.00;;;;;;;22.88;49.02;100155.97;5004548;28;20513;-84
2022/10/16 08:28:33;;;;;;;2.10;1.23;;;;;;;23.21;48.22;100157.56;4995885;28;21007;-85
2022/10/16 08:31:16;;;;;;;2.90;1.20;;;;;;;23.33;47.51;100154.88;4994347;28;20501;-83
2022/10/16 08:33:46;;;;;;;1.30;0.93;;;;;;;23.52;47.91;100165.81;4991963;28;20457;-85
2022/10/16 08:36:13;;;;;;;2.87;1.00;;;;;;;23.20;47.70;100160.50;5003657;28;20566;-83
2022/10/16 08:38:40;;;;;;;1.80;1.13;;;;;;;24.77;44.71;100167.00;5009152;28;20451;-82
2022/10/16 08:41:27;;;;;;;2.33;1.17;;;;;;;25.12;44.10;100166.19;5004440;28;20478;-84
2022/10/16 08:44:23;;;;;;;2.00;1.00;;;;;;;22.56;49.63;100179.72;5006527;28;20483;-83
2022/10/16 08:46:55;;;;;;;3.70;1.10;;;;;;;23.36;47.54;100176.25;5002724;28;20509;-84
2022/10/16 08:49:24;;;;;;;2.33;0.93;;;;;;;24.02;46.23;100192.94;5008089;28;20477;-82
2022/10/16 08:51:51;;;;;;;1.30;1.00;;;;;;;23.58;46.74;100182.13;5002746;28;20486;-83
2022/10/16 08:54:27;;;;;;;2.90;1.10;;;;;;;23.85;46.46;100185.38;5005269;28;20447;-80
2022/10/16 08:56:55;;;;;;;2.83;1.10;;;;;;;23.39;46.26;100184.00;5001549;28;21730;-80
2022/10/16 08:59:22;;;;;;;3.50;1.33;;;;;;;23.11;47.64;100193.53;4999546;28;20456;-81
2022/10/16 09:01:52;;;;;;;2.00;1.00;;;;;;;22.52;49.30;100201.13;4994620;28;20478;-81
2022/10/16 09:04:42;;;;;;;2.20;1.20;;;;;;;22.40;49.27;100202.88;5000511;28;20481;-81
2022/10/16 09:07:16;;;;;;;2.53;0.87;;;;;;;23.28;47.50;100209.31;4998854;28;20495;-81
2022/10/16 09:09:58;;;;;;;2.07;0.90;;;;;;;22.70;49.01;100204.97;4997146;28;20502;-80
2022/10/16 09:12:29;;;;;;;1.50;1.07;;;;;;;23.82;46.77;100202.22;5001977;28;20482;-81
2022/10/16 09:15:03;;;;;;;3.40;1.20;;;;;;;24.98;43.42;100212.09;5003806;28;20499;-80
2022/10/16 09:17:48;;;;;;;1.93;0.87;;;;;;;24.64;44.06;100222.75;4998529;28;20619;-81
2022/10/16 09:20:21;;;;;;;2.23;1.00;;;;;;;25.51;42.13;100213.88;5008699;28;20502;-81
2022/10/16 09:22:47;;;;;;;3.20;1.03;;;;;;;25.90;41.04;100224.28;5002392;28;20466;-82
2022/10/16 09:25:22;;;;;;;1.67;0.90;;;;;;;23.90;45.06;100227.53;4997634;28;20593;-81
2022/10/16 09:27:50;;;;;;;2.50;1.20;;;;;;;22.89;47.06;100214.88;4998902;28;20475;-81
2022/10/16 09:30:21;;;;;;;2.50;1.13;;;;;;;21.96;49.88;100220.88;4996908;28;20811;-81
2022/10/16 09:32:51;;;;;;;4.83;1.20;;;;;;;22.59;48.62;100216.59;5008423;28;20463;-81
2022/10/16 09:35:20;;;;;;;1.83;1.07;;;;;;;23.20;47.80;100210.44;5010433;28;20497;-81
2022/10/16 09:37:49;;;;;;;3.13;1.00;;;;;;;22.87;47.87;100233.34;5002219;28;20550;-81
2022/10/16 09:40:25;;;;;;;3.00;0.87;;;;;;;21.76;50.82;100229.97;5001454;28;20470;-81
2022/10/16 09:42:55;;;;;;;4.03;0.90;;;;;;;22.47;48.70;100221.91;4997676;28;21237;-82
2022/10/16 09:45:23;;;;;;;3.37;1.33;;;;;;;23.70;46.53;100220.41;5001002;28;20466;-82
2022/10/16 09:47:51;;;;;;;2.13;0.70;;;;;;;24.76;43.25;100220.88;5001109;28;20458;-82
2022/10/16 09:50:26;;;;;;;8.30;0.93;;;;;;;24.77;43.41;100229.91;4999993;28;20470;-83
2022/10/16 09:53:04;;;;;;;4.03;0.80;;;;;;;24.25;42.90;100227.69;5001399;28;20475;-83
2022/10/16 09:55:30;;;;;;;3.20;0.70;;;;;;;23.03;45.76;100233.84;4999008;28;20566;-81
2022/10/16 09:57:57;;;;;;;2.90;0.70;;;;;;;23.82;44.42;100236.88;5004001;28;21038;-82
2022/10/16 10:00:25;;;;;;;2.07;1.23;;;;;;;24.37;43.69;100236.78;5001466;28;20469;-83
2022/10/16 10:02:53;;;;;;;5.13;1.43;;;;;;;24.00;43.67;100244.22;5002091;28;20681;-82
2022/10/16 10:05:22;;;;;;;3.07;0.70;;;;;;;25.36;41.27;100249.97;4995667;28;20467;-82
2022/10/16 10:07:57;;;;;;;2.57;0.60;;;;;;;24.12;42.60;100256.03;5001715;28;20498;-83
2022/10/16 10:10:25;;;;;;;4.07;1.00;;;;;;;23.93;43.45;100252.50;5003676;28;20466;-83
2022/10/16 10:12:53;;;;;;;2.10;0.80;;;;;;;23.88;44.13;100261.34;5006913;28;20489;-82
2022/10/16 10:15:21;;;;;;;2.23;0.70;;;;;;;24.09;43.46;100261.13;5000842;28;20482;-83
2022/10/16 10:17:49;;;;;;;2.70;0.70;;;;;;;24.25;41.67;100263.22;4997881;28;20512;-84
2022/10/16 10:20:24;;;;;;;2.80;0.63;;;;;;;22.69;46.14;100272.28;5001387;28;20450;-83
2022/10/16 10:22:51;;;;;;;1.73;0.73;;;;;;;23.93;44.12;100266.13;5019516;28;20475;-82
2022/10/16 10:25:28;;;;;;;1.93;0.90;;;;;;;25.02;41.17;100267.19;4996901;28;20577;-82
2022/10/16 10:28:17;;;;;;;2.10;0.67;;;;;;;24.87;41.40;100270.34;4998248;28;20475;-82
2022/10/16 10:30:49;;;;;;;2.43;1.17;;;;;;;25.25;40.87;100267.22;4996914;28;20472;-83
2022/10/16 10:33:22;;;;;;;3.63;0.90;;;;;;;24.98;41.61;100281.31;5001416;28;20471;-82
2022/10/16 10:35:56;;;;;;;2.40;0.70;;;;;;;22.67;45.46;100277.13;5000218;28;20483;-83
2022/10/16 10:38:32;;;;;;;4.37;1.13;;;;;;;22.22;45.86;100271.69;5000729;28;20459;-82
2022/10/16 10:41:13;;;;;;;2.20;0.60;;;;;;;21.98;47.22;100273.25;4997153;28;20488;-83
2022/10/16 10:43:48;;;;;;;3.97;0.77;;;;;;;24.02;42.52;100277.59;5001395;28;20457;-83
2022/10/16 10:46:23;;;;;;;3.87;1.00;;;;;;;24.30;41.35;100287.94;4996445;28;20486;-81
2022/10/16 10:49:12;;;;;;;2.00;0.67;;;;;;;25.12;40.25;100284.66;4999641;28;21005;-83
2022/10/16 10:51:49;;;;;;;4.90;1.10;;;;;;;23.88;42.19;100275.00;5000915;28;20583;-83
2022/10/16 10:54:21;;;;;;;1.90;0.70;;;;;;;22.55;44.97;100282.41;5001936;28;20488;-83
2022/10/16 10:56:53;;;;;;;2.40;0.57;;;;;;;22.68;44.79;100299.75;5004577;28;20501;-83
2022/10/16 10:59:33;;;;;;;1.57;0.70;;;;;;;23.30;42.99;100283.56;5001644;28;20450;-84
2022/10/16 11:02:01;;;;;;;2.00;1.07;;;;;;;24.36;41.72;100286.22;5005964;28;20493;-83
2022/10/16 11:04:43;;;;;;;6.03;1.47;;;;;;;24.66;39.77;100288.97;5001063;28;20467;-82
2022/10/16 11:07:16;;;;;;;4.77;1.17;;;;;;;24.84;40.29;100285.31;4999758;28;20518;-83
2022/10/16 11:09:46;;;;;;;5.10;1.03;;;;;;;24.58;40.52;100289.28;4999309;28;20443;-83
2022/10/16 11:12:16;;;;;;;3.77;0.97;;;;;;;25.20;40.01;100286.22;5002133;28;20558;-82
2022/10/16 11:14:47;;;;;;;1.63;0.90;;;;;;;25.05;40.01;100291.31;5000389;28;20506;-83
2022/10/16 11:17:19;;;;;;;2.43;0.80;;;;;;;25.49;39.22;100291.84;5000153;28;20479;-81
2022/10/16 11:19:48;;;;;;;2.00;0.60;;;;;;;25.10;39.45;100297.75;5003700;28;20439;-82
2022/10/16 11:22:21;;;;;;;3.10;0.80;;;;;;;24.52;39.77;100299.22;5005315;28;21034;-81
2022/10/16 11:24:53;;;;;;;2.70;1.00;;;;;;;24.52;40.02;100301.13;4998711;28;20482;-82
2022/10/16 11:27:24;;;;;;;2.30;0.97;;;;;;;25.27;38.98;100302.56;4998287;28;20464;-81
2022/10/16 11:29:58;;;;;;;2.03;0.73;;;;;;;24.28;40.48;100301.00;5000961;28;20497;-81
2022/10/16 11:32:30;;;;;;;5.70;1.07;;;;;;;23.45;41.94;100291.41;5002124;28;20479;-81
2022/10/16 11:35:01;;;;;;;3.50;0.80;;;;;;;21.47;46.29;100298.47;5000618;28;20475;-81
2022/10/16 11:37:33;;;;;;;4.67;1.33;;;;;;;22.15;44.49;100307.09;5000145;28;20841;-80